sensor_id;sensor_type;location;lat;lon;timestamp;P1;P2;P0
30342;PMS5003;17145;49.902;8.680;2023-07-31T00:02:08;6;6;
30342;PMS5003;17145;49.902;8.680;2023-07-31T00:04:36;5;5;
30342;PMS5003;17145;49.902;8.680;2023-07-31T00:07:04;7;7;
30342;PMS5003;17145;49.902;8.680;2023-07-31T00:09:31;7;7;
30342;PMS5003;17145;49.902;8.680;2023-07-31T00:11:59;6;6;
30342;PMS5003;17145;49.902;8.680;2023-07-31T00:14:26;6;6;
30342;PMS5003;17145;49.902;8.680;2023-07-31T00:16:53;6;6;
30342;PMS5003;17145;49.902;8.680;2023-07-31T00:19:21;6;6;
30342;PMS5003;17145;49.902;8.680;2023-07-31T00:21:48;5;5;
30342;PMS5003;17145;49.902;8.680;2023-07-31T00:24:16;6;5;
30342;PMS5003;17145;49.902;8.680;2023-07-31T00:26:43;6;6;
30342;PMS5003;17145;49.902;8.680;2023-07-31T00:29:10;7;7;
30342;PMS5003;17145;49.902;8.680;2023-07-31T00:31:38;7;7;
30342;PMS5003;17145;49.902;8.680;2023-07-31T00:34:05;8;8;
30342;PMS5003;17145;49.902;8.680;2023-07-31T00:36:33;5;5;
30342;PMS5003;17145;49.902;8.680;2023-07-31T00:39:00;4;4;
30342;PMS5003;17145;49.902;8.680;2023-07-31T00:41:27;3;3;
30342;PMS5003;17145;49.902;8.680;2023-07-31T00:43:55;3;3;
30342;PMS5003;17145;49.902;8.680;2023-07-31T00:46:22;4;4;
30342;PMS5003;17145;49.902;8.680;2023-07-31T00:48:50;4;4;
30342;PMS5003;17145;49.902;8.680;2023-07-31T00:51:18;5;5;
30342;PMS5003;17145;49.902;8.680;2023-07-31T00:53:45;4;4;
30342;PMS5003;17145;49.902;8.680;2023-07-31T00:56:14;4;4;
30342;PMS5003;17145;49.902;8.680;2023-07-31T00:58:42;4;4;
30342;PMS5003;17145;49.902;8.680;2023-07-31T01:01:10;6;4;
30342;PMS5003;17145;49.902;8.680;2023-07-31T01:03:37;5;4;
30342;PMS5003;17145;49.902;8.680;2023-07-31T01:06:08;5;4;
30342;PMS5003;17145;49.902;8.680;2023-07-31T01:08:42;4;4;
30342;PMS5003;17145;49.902;8.680;2023-07-31T01:11:17;3;3;
30342;PMS5003;17145;49.902;8.680;2023-07-31T01:13:51;3;3;
30342;PMS5003;17145;49.902;8.680;2023-07-31T01:16:20;4;4;
30342;PMS5003;17145;49.902;8.680;2023-07-31T01:18:48;4;4;
30342;PMS5003;17145;49.902;8.680;2023-07-31T01:21:23;6;5;
30342;PMS5003;17145;49.902;8.680;2023-07-31T01:24:08;6;6;
30342;PMS5003;17145;49.902;8.680;2023-07-31T01:26:47;5;5;
30342;PMS5003;17145;49.902;8.680;2023-07-31T01:29:22;5;5;
30342;PMS5003;17145;49.902;8.680;2023-07-31T01:31:55;5;5;
30342;PMS5003;17145;49.902;8.680;2023-07-31T01:34:27;4;4;
30342;PMS5003;17145;49.902;8.680;2023-07-31T01:36:56;5;5;
30342;PMS5003;17145;49.902;8.680;2023-07-31T01:39:24;5;5;
30342;PMS5003;17145;49.902;8.680;2023-07-31T01:41:51;5;5;
30342;PMS5003;17145;49.902;8.680;2023-07-31T01:44:18;6;5;
30342;PMS5003;17145;49.902;8.680;2023-07-31T01:46:45;5;5;
30342;PMS5003;17145;49.902;8.680;2023-07-31T01:49:13;6;5;
30342;PMS5003;17145;49.902;8.680;2023-07-31T01:51:40;6;5;
30342;PMS5003;17145;49.902;8.680;2023-07-31T01:54:08;5;5;
30342;PMS5003;17145;49.902;8.680;2023-07-31T01:56:35;4;4;
30342;PMS5003;17145;49.902;8.680;2023-07-31T01:59:02;5;5;
30342;PMS5003;17145;49.902;8.680;2023-07-31T02:01:30;5;5;
30342;PMS5003;17145;49.902;8.680;2023-07-31T02:03:57;6;6;
30342;PMS5003;17145;49.902;8.680;2023-07-31T02:06:25;4;4;
30342;PMS5003;17145;49.902;8.680;2023-07-31T02:08:52;5;5;
30342;PMS5003;17145;49.902;8.680;2023-07-31T02:11:20;4;4;
30342;PMS5003;17145;49.902;8.680;2023-07-31T02:13:47;4;4;
30342;PMS5003;17145;49.902;8.680;2023-07-31T02:16:14;4;4;
30342;PMS5003;17145;49.902;8.680;2023-07-31T02:18:41;5;5;
30342;PMS5003;17145;49.902;8.680;2023-07-31T02:21:09;5;5;
30342;PMS5003;17145;49.902;8.680;2023-07-31T02:23:36;5;5;
30342;PMS5003;17145;49.902;8.680;2023-07-31T02:26:03;6;6;
30342;PMS5003;17145;49.902;8.680;2023-07-31T02:28:31;4;4;
30342;PMS5003;17145;49.902;8.680;2023-07-31T02:30:58;6;6;
30342;PMS5003;17145;49.902;8.680;2023-07-31T02:33:25;5;5;
30342;PMS5003;17145;49.902;8.680;2023-07-31T02:35:53;5;5;
30342;PMS5003;17145;49.902;8.680;2023-07-31T02:38:20;6;6;
30342;PMS5003;17145;49.902;8.680;2023-07-31T02:40:47;4;4;
30342;PMS5003;17145;49.902;8.680;2023-07-31T02:43:15;7;6;
30342;PMS5003;17145;49.902;8.680;2023-07-31T02:45:42;5;5;
30342;PMS5003;17145;49.902;8.680;2023-07-31T02:48:10;4;4;
30342;PMS5003;17145;49.902;8.680;2023-07-31T02:50:37;5;5;
30342;PMS5003;17145;49.902;8.680;2023-07-31T02:53:04;4;4;
30342;PMS5003;17145;49.902;8.680;2023-07-31T02:55:32;4;4;
30342;PMS5003;17145;49.902;8.680;2023-07-31T02:57:59;5;5;
30342;PMS5003;17145;49.902;8.680;2023-07-31T03:00:27;4;4;
30342;PMS5003;17145;49.902;8.680;2023-07-31T03:02:54;4;4;
30342;PMS5003;17145;49.902;8.680;2023-07-31T03:05:22;4;4;
30342;PMS5003;17145;49.902;8.680;2023-07-31T03:07:49;6;6;
30342;PMS5003;17145;49.902;8.680;2023-07-31T03:10:16;5;5;
30342;PMS5003;17145;49.902;8.680;2023-07-31T03:12:46;6;6;
30342;PMS5003;17145;49.902;8.680;2023-07-31T03:15:13;6;6;
30342;PMS5003;17145;49.902;8.680;2023-07-31T03:17:41;6;6;
30342;PMS5003;17145;49.902;8.680;2023-07-31T03:20:09;5;5;
30342;PMS5003;17145;49.902;8.680;2023-07-31T03:22:37;5;5;
30342;PMS5003;17145;49.902;8.680;2023-07-31T03:25:04;4;4;
30342;PMS5003;17145;49.902;8.680;2023-07-31T03:27:33;5;5;
30342;PMS5003;17145;49.902;8.680;2023-07-31T03:30:00;6;5;
30342;PMS5003;17145;49.902;8.680;2023-07-31T03:32:29;4;4;
30342;PMS5003;17145;49.902;8.680;2023-07-31T03:34:56;6;6;
30342;PMS5003;17145;49.902;8.680;2023-07-31T03:37:24;4;4;
30342;PMS5003;17145;49.902;8.680;2023-07-31T03:39:51;4;4;
30342;PMS5003;17145;49.902;8.680;2023-07-31T03:42:18;4;4;
30342;PMS5003;17145;49.902;8.680;2023-07-31T03:44:46;4;4;
30342;PMS5003;17145;49.902;8.680;2023-07-31T03:47:13;4;4;
30342;PMS5003;17145;49.902;8.680;2023-07-31T03:49:41;4;4;
30342;PMS5003;17145;49.902;8.680;2023-07-31T03:52:08;4;4;
30342;PMS5003;17145;49.902;8.680;2023-07-31T03:54:35;3;3;
30342;PMS5003;17145;49.902;8.680;2023-07-31T03:57:03;4;4;
30342;PMS5003;17145;49.902;8.680;2023-07-31T03:59:31;4;4;
30342;PMS5003;17145;49.902;8.680;2023-07-31T04:01:58;3;3;
30342;PMS5003;17145;49.902;8.680;2023-07-31T04:04:25;4;4;
30342;PMS5003;17145;49.902;8.680;2023-07-31T04:06:53;5;4;
30342;PMS5003;17145;49.902;8.680;2023-07-31T04:09:20;4;4;
30342;PMS5003;17145;49.902;8.680;2023-07-31T04:11:48;5;5;
30342;PMS5003;17145;49.902;8.680;2023-07-31T04:14:15;4;4;
30342;PMS5003;17145;49.902;8.680;2023-07-31T04:16:42;4;4;
30342;PMS5003;17145;49.902;8.680;2023-07-31T04:19:10;6;5;
30342;PMS5003;17145;49.902;8.680;2023-07-31T04:21:37;6;5;
30342;PMS5003;17145;49.902;8.680;2023-07-31T04:24:05;5;5;
30342;PMS5003;17145;49.902;8.680;2023-07-31T04:26:32;6;6;
30342;PMS5003;17145;49.902;8.680;2023-07-31T04:28:59;7;6;
30342;PMS5003;17145;49.902;8.680;2023-07-31T04:31:27;6;6;
30342;PMS5003;17145;49.902;8.680;2023-07-31T04:33:54;8;7;
30342;PMS5003;17145;49.902;8.680;2023-07-31T04:36:22;10;10;
30342;PMS5003;17145;49.902;8.680;2023-07-31T04:38:49;11;10;
30342;PMS5003;17145;49.902;8.680;2023-07-31T04:41:17;8;8;
30342;PMS5003;17145;49.902;8.680;2023-07-31T04:43:44;11;11;
30342;PMS5003;17145;49.902;8.680;2023-07-31T04:46:11;11;11;
30342;PMS5003;17145;49.902;8.680;2023-07-31T04:48:39;9;9;
30342;PMS5003;17145;49.902;8.680;2023-07-31T04:51:06;11;10;
30342;PMS5003;17145;49.902;8.680;2023-07-31T04:53:33;8;8;
30342;PMS5003;17145;49.902;8.680;2023-07-31T04:56:01;11;11;
30342;PMS5003;17145;49.902;8.680;2023-07-31T04:58:28;12;12;
30342;PMS5003;17145;49.902;8.680;2023-07-31T05:00:56;11;11;
30342;PMS5003;17145;49.902;8.680;2023-07-31T05:03:23;10;10;
30342;PMS5003;17145;49.902;8.680;2023-07-31T05:05:50;10;10;
30342;PMS5003;17145;49.902;8.680;2023-07-31T05:08:18;13;12;
30342;PMS5003;17145;49.902;8.680;2023-07-31T05:10:45;12;12;
30342;PMS5003;17145;49.902;8.680;2023-07-31T05:13:12;12;12;
30342;PMS5003;17145;49.902;8.680;2023-07-31T05:15:40;14;14;
30342;PMS5003;17145;49.902;8.680;2023-07-31T05:18:08;11;11;
30342;PMS5003;17145;49.902;8.680;2023-07-31T05:20:35;13;13;
30342;PMS5003;17145;49.902;8.680;2023-07-31T05:23:02;12;12;
30342;PMS5003;17145;49.902;8.680;2023-07-31T05:25:30;12;11;
30342;PMS5003;17145;49.902;8.680;2023-07-31T05:27:57;12;11;
30342;PMS5003;17145;49.902;8.680;2023-07-31T05:30:24;14;14;
30342;PMS5003;17145;49.902;8.680;2023-07-31T05:32:52;12;11;
30342;PMS5003;17145;49.902;8.680;2023-07-31T05:35:19;12;12;
30342;PMS5003;17145;49.902;8.680;2023-07-31T05:37:47;11;11;
30342;PMS5003;17145;49.902;8.680;2023-07-31T05:40:14;9;9;
30342;PMS5003;17145;49.902;8.680;2023-07-31T05:42:41;11;11;
30342;PMS5003;17145;49.902;8.680;2023-07-31T05:45:09;14;14;
30342;PMS5003;17145;49.902;8.680;2023-07-31T05:47:37;12;11;
30342;PMS5003;17145;49.902;8.680;2023-07-31T05:50:04;16;16;
30342;PMS5003;17145;49.902;8.680;2023-07-31T05:52:33;19;19;
30342;PMS5003;17145;49.902;8.680;2023-07-31T05:55:00;19;19;
30342;PMS5003;17145;49.902;8.680;2023-07-31T05:57:28;17;17;
30342;PMS5003;17145;49.902;8.680;2023-07-31T05:59:55;22;22;
30342;PMS5003;17145;49.902;8.680;2023-07-31T06:02:22;15;15;
30342;PMS5003;17145;49.902;8.680;2023-07-31T06:04:50;15;15;
30342;PMS5003;17145;49.902;8.680;2023-07-31T06:07:17;13;13;
30342;PMS5003;17145;49.902;8.680;2023-07-31T06:09:44;7;7;
30342;PMS5003;17145;49.902;8.680;2023-07-31T06:12:12;8;8;
30342;PMS5003;17145;49.902;8.680;2023-07-31T06:14:39;9;8;
30342;PMS5003;17145;49.902;8.680;2023-07-31T06:17:07;8;8;
30342;PMS5003;17145;49.902;8.680;2023-07-31T06:19:34;7;7;
30342;PMS5003;17145;49.902;8.680;2023-07-31T06:22:01;6;5;
30342;PMS5003;17145;49.902;8.680;2023-07-31T06:24:28;5;5;
30342;PMS5003;17145;49.902;8.680;2023-07-31T06:26:56;5;5;
30342;PMS5003;17145;49.902;8.680;2023-07-31T06:29:23;6;5;
30342;PMS5003;17145;49.902;8.680;2023-07-31T06:31:51;5;5;
30342;PMS5003;17145;49.902;8.680;2023-07-31T06:34:18;5;5;
30342;PMS5003;17145;49.902;8.680;2023-07-31T06:36:45;5;5;
30342;PMS5003;17145;49.902;8.680;2023-07-31T06:39:13;5;5;
30342;PMS5003;17145;49.902;8.680;2023-07-31T06:41:41;4;4;
30342;PMS5003;17145;49.902;8.680;2023-07-31T06:44:08;5;5;
30342;PMS5003;17145;49.902;8.680;2023-07-31T06:46:35;5;5;
30342;PMS5003;17145;49.902;8.680;2023-07-31T06:49:03;5;5;
30342;PMS5003;17145;49.902;8.680;2023-07-31T06:51:30;5;5;
30342;PMS5003;17145;49.902;8.680;2023-07-31T06:53:58;5;5;
30342;PMS5003;17145;49.902;8.680;2023-07-31T06:56:25;6;6;
30342;PMS5003;17145;49.902;8.680;2023-07-31T06:58:52;6;6;
30342;PMS5003;17145;49.902;8.680;2023-07-31T07:01:20;7;7;
30342;PMS5003;17145;49.902;8.680;2023-07-31T07:03:47;7;7;
30342;PMS5003;17145;49.902;8.680;2023-07-31T07:06:14;8;8;
30342;PMS5003;17145;49.902;8.680;2023-07-31T07:08:42;7;7;
30342;PMS5003;17145;49.902;8.680;2023-07-31T07:11:09;7;7;
30342;PMS5003;17145;49.902;8.680;2023-07-31T07:13:37;7;7;
30342;PMS5003;17145;49.902;8.680;2023-07-31T07:16:04;7;7;
30342;PMS5003;17145;49.902;8.680;2023-07-31T07:18:31;7;7;
30342;PMS5003;17145;49.902;8.680;2023-07-31T07:20:59;6;6;
30342;PMS5003;17145;49.902;8.680;2023-07-31T07:23:26;8;7;
30342;PMS5003;17145;49.902;8.680;2023-07-31T07:25:54;6;6;
30342;PMS5003;17145;49.902;8.680;2023-07-31T07:28:21;6;6;
30342;PMS5003;17145;49.902;8.680;2023-07-31T07:30:50;5;5;
30342;PMS5003;17145;49.902;8.680;2023-07-31T07:33:18;5;5;
30342;PMS5003;17145;49.902;8.680;2023-07-31T07:35:46;6;5;
30342;PMS5003;17145;49.902;8.680;2023-07-31T07:38:13;6;6;
30342;PMS5003;17145;49.902;8.680;2023-07-31T07:40:41;5;5;
30342;PMS5003;17145;49.902;8.680;2023-07-31T07:43:08;4;4;
30342;PMS5003;17145;49.902;8.680;2023-07-31T07:45:36;5;5;
30342;PMS5003;17145;49.902;8.680;2023-07-31T07:48:03;6;6;
30342;PMS5003;17145;49.902;8.680;2023-07-31T07:50:31;5;5;
30342;PMS5003;17145;49.902;8.680;2023-07-31T07:52:58;6;6;
30342;PMS5003;17145;49.902;8.680;2023-07-31T07:55:25;6;6;
30342;PMS5003;17145;49.902;8.680;2023-07-31T07:57:53;5;5;
30342;PMS5003;17145;49.902;8.680;2023-07-31T08:00:21;6;5;
30342;PMS5003;17145;49.902;8.680;2023-07-31T08:02:48;5;5;
30342;PMS5003;17145;49.902;8.680;2023-07-31T08:05:15;4;4;
30342;PMS5003;17145;49.902;8.680;2023-07-31T08:07:43;5;5;
30342;PMS5003;17145;49.902;8.680;2023-07-31T08:10:10;5;5;
30342;PMS5003;17145;49.902;8.680;2023-07-31T08:12:38;5;5;
30342;PMS5003;17145;49.902;8.680;2023-07-31T08:15:06;4;4;
30342;PMS5003;17145;49.902;8.680;2023-07-31T08:17:34;5;5;
30342;PMS5003;17145;49.902;8.680;2023-07-31T08:20:01;5;5;
30342;PMS5003;17145;49.902;8.680;2023-07-31T08:22:28;7;7;
30342;PMS5003;17145;49.902;8.680;2023-07-31T08:24:56;6;5;
30342;PMS5003;17145;49.902;8.680;2023-07-31T08:27:23;6;5;
30342;PMS5003;17145;49.902;8.680;2023-07-31T08:29:51;5;5;
30342;PMS5003;17145;49.902;8.680;2023-07-31T08:32:19;6;5;
30342;PMS5003;17145;49.902;8.680;2023-07-31T08:34:46;5;5;
30342;PMS5003;17145;49.902;8.680;2023-07-31T08:37:13;5;5;
30342;PMS5003;17145;49.902;8.680;2023-07-31T08:39:41;5;5;
30342;PMS5003;17145;49.902;8.680;2023-07-31T08:42:08;5;5;
30342;PMS5003;17145;49.902;8.680;2023-07-31T08:44:35;5;5;
30342;PMS5003;17145;49.902;8.680;2023-07-31T08:47:04;6;6;
30342;PMS5003;17145;49.902;8.680;2023-07-31T08:49:32;7;6;
30342;PMS5003;17145;49.902;8.680;2023-07-31T08:52:01;6;6;
30342;PMS5003;17145;49.902;8.680;2023-07-31T08:54:29;6;5;
30342;PMS5003;17145;49.902;8.680;2023-07-31T08:56:56;7;6;
30342;PMS5003;17145;49.902;8.680;2023-07-31T08:59:25;6;6;
30342;PMS5003;17145;49.902;8.680;2023-07-31T09:01:55;7;7;
30342;PMS5003;17145;49.902;8.680;2023-07-31T09:04:24;7;7;
30342;PMS5003;17145;49.902;8.680;2023-07-31T09:06:54;7;7;
30342;PMS5003;17145;49.902;8.680;2023-07-31T09:09:27;7;7;
30342;PMS5003;17145;49.902;8.680;2023-07-31T09:11:54;13;13;
30342;PMS5003;17145;49.902;8.680;2023-07-31T09:14:22;14;14;
30342;PMS5003;17145;49.902;8.680;2023-07-31T09:16:52;15;15;
30342;PMS5003;17145;49.902;8.680;2023-07-31T09:19:25;18;18;
30342;PMS5003;17145;49.902;8.680;2023-07-31T09:21:52;26;26;
30342;PMS5003;17145;49.902;8.680;2023-07-31T09:24:25;29;28;
30342;PMS5003;17145;49.902;8.680;2023-07-31T09:26:54;31;31;
30342;PMS5003;17145;49.902;8.680;2023-07-31T09:29:22;12;8;
30342;PMS5003;17145;49.902;8.680;2023-07-31T09:31:50;39;38;
30342;PMS5003;17145;49.902;8.680;2023-07-31T09:34:17;18;18;
30342;PMS5003;17145;49.902;8.680;2023-07-31T09:36:46;36;36;
30342;PMS5003;17145;49.902;8.680;2023-07-31T09:39:15;37;37;
30342;PMS5003;17145;49.902;8.680;2023-07-31T09:41:44;42;41;
30342;PMS5003;17145;49.902;8.680;2023-07-31T09:44:13;46;46;
30342;PMS5003;17145;49.902;8.680;2023-07-31T09:46:41;54;53;
30342;PMS5003;17145;49.902;8.680;2023-07-31T09:49:08;60;60;
30342;PMS5003;17145;49.902;8.680;2023-07-31T09:51:37;61;61;
30342;PMS5003;17145;49.902;8.680;2023-07-31T09:54:09;13;10;
30342;PMS5003;17145;49.902;8.680;2023-07-31T09:56:38;41;41;
30342;PMS5003;17145;49.902;8.680;2023-07-31T09:59:10;46;46;
30342;PMS5003;17145;49.902;8.680;2023-07-31T10:01:40;51;51;
30342;PMS5003;17145;49.902;8.680;2023-07-31T10:04:08;57;57;
30342;PMS5003;17145;49.902;8.680;2023-07-31T10:06:37;60;60;
30342;PMS5003;17145;49.902;8.680;2023-07-31T10:09:06;64;64;
30342;PMS5003;17145;49.902;8.680;2023-07-31T10:11:37;64;64;
30342;PMS5003;17145;49.902;8.680;2023-07-31T10:14:08;65;65;
30342;PMS5003;17145;49.902;8.680;2023-07-31T10:16:38;66;66;
30342;PMS5003;17145;49.902;8.680;2023-07-31T10:19:05;46;46;
30342;PMS5003;17145;49.902;8.680;2023-07-31T10:21:34;12;10;
30342;PMS5003;17145;49.902;8.680;2023-07-31T10:24:02;27;27;
30342;PMS5003;17145;49.902;8.680;2023-07-31T10:26:31;38;38;
30342;PMS5003;17145;49.902;8.680;2023-07-31T10:28:59;47;47;
30342;PMS5003;17145;49.902;8.680;2023-07-31T10:31:26;35;35;
30342;PMS5003;17145;49.902;8.680;2023-07-31T10:33:55;32;32;
30342;PMS5003;17145;49.902;8.680;2023-07-31T10:36:25;33;33;
30342;PMS5003;17145;49.902;8.680;2023-07-31T10:38:52;26;26;
30342;PMS5003;17145;49.902;8.680;2023-07-31T10:43:57;26;26;
30342;PMS5003;17145;49.902;8.680;2023-07-31T10:46:25;27;26;
30342;PMS5003;17145;49.902;8.680;2023-07-31T10:48:57;25;25;
30342;PMS5003;17145;49.902;8.680;2023-07-31T10:56:37;23;22;
30342;PMS5003;17145;49.902;8.680;2023-07-31T10:59:05;26;25;
30342;PMS5003;17145;49.902;8.680;2023-07-31T11:04:15;24;24;
30342;PMS5003;17145;49.902;8.680;2023-07-31T11:06:55;24;24;
30342;PMS5003;17145;49.902;8.680;2023-07-31T11:09:24;31;30;
30342;PMS5003;17145;49.902;8.680;2023-07-31T11:11:54;55;55;
30342;PMS5003;17145;49.902;8.680;2023-07-31T11:14:22;57;57;
30342;PMS5003;17145;49.902;8.680;2023-07-31T11:16:50;23;22;
30342;PMS5003;17145;49.902;8.680;2023-07-31T11:19:21;74;74;
30342;PMS5003;17145;49.902;8.680;2023-07-31T11:21:49;76;76;
30342;PMS5003;17145;49.902;8.680;2023-07-31T11:24:17;59;59;
30342;PMS5003;17145;49.902;8.680;2023-07-31T11:26:48;55;55;
30342;PMS5003;17145;49.902;8.680;2023-07-31T11:29:17;41;41;
30342;PMS5003;17145;49.902;8.680;2023-07-31T11:31:44;17;11;
30342;PMS5003;17145;49.902;8.680;2023-07-31T11:34:13;54;53;
30342;PMS5003;17145;49.902;8.680;2023-07-31T11:36:40;66;65;
30342;PMS5003;17145;49.902;8.680;2023-07-31T11:39:07;54;53;
30342;PMS5003;17145;49.902;8.680;2023-07-31T11:41:36;63;62;
30342;PMS5003;17145;49.902;8.680;2023-07-31T11:44:07;32;32;
30342;PMS5003;17145;49.902;8.680;2023-07-31T11:46:34;52;52;
30342;PMS5003;17145;49.902;8.680;2023-07-31T11:49:03;72;72;
30342;PMS5003;17145;49.902;8.680;2023-07-31T11:51:30;54;54;
30342;PMS5003;17145;49.902;8.680;2023-07-31T11:53:58;55;54;
30342;PMS5003;17145;49.902;8.680;2023-07-31T11:56:28;17;13;
30342;PMS5003;17145;49.902;8.680;2023-07-31T11:58:57;49;49;
30342;PMS5003;17145;49.902;8.680;2023-07-31T12:01:26;62;62;
30342;PMS5003;17145;49.902;8.680;2023-07-31T12:03:54;54;54;
30342;PMS5003;17145;49.902;8.680;2023-07-31T12:09:02;10;10;
30342;PMS5003;17145;49.902;8.680;2023-07-31T12:11:30;8;7;
30342;PMS5003;17145;49.902;8.680;2023-07-31T12:13:57;6;5;
30342;PMS5003;17145;49.902;8.680;2023-07-31T12:16:26;5;5;
30342;PMS5003;17145;49.902;8.680;2023-07-31T12:18:53;6;6;
30342;PMS5003;17145;49.902;8.680;2023-07-31T12:21:21;5;5;
30342;PMS5003;17145;49.902;8.680;2023-07-31T12:23:48;9;7;
30342;PMS5003;17145;49.902;8.680;2023-07-31T12:26:18;7;7;
30342;PMS5003;17145;49.902;8.680;2023-07-31T12:28:46;7;6;
30342;PMS5003;17145;49.902;8.680;2023-07-31T12:31:15;6;6;
30342;PMS5003;17145;49.902;8.680;2023-07-31T12:33:44;6;6;
30342;PMS5003;17145;49.902;8.680;2023-07-31T12:36:13;6;6;
30342;PMS5003;17145;49.902;8.680;2023-07-31T12:38:42;5;5;
30342;PMS5003;17145;49.902;8.680;2023-07-31T12:41:09;7;7;
30342;PMS5003;17145;49.902;8.680;2023-07-31T12:43:37;6;6;
30342;PMS5003;17145;49.902;8.680;2023-07-31T12:46:06;5;5;
30342;PMS5003;17145;49.902;8.680;2023-07-31T12:48:35;6;6;
30342;PMS5003;17145;49.902;8.680;2023-07-31T12:51:03;6;6;
30342;PMS5003;17145;49.902;8.680;2023-07-31T12:53:30;6;6;
30342;PMS5003;17145;49.902;8.680;2023-07-31T12:55:58;5;5;
30342;PMS5003;17145;49.902;8.680;2023-07-31T12:58:26;6;5;
30342;PMS5003;17145;49.902;8.680;2023-07-31T13:00:53;6;6;
30342;PMS5003;17145;49.902;8.680;2023-07-31T13:03:21;6;6;
30342;PMS5003;17145;49.902;8.680;2023-07-31T13:05:48;8;8;
30342;PMS5003;17145;49.902;8.680;2023-07-31T13:08:16;13;12;
30342;PMS5003;17145;49.902;8.680;2023-07-31T13:10:43;33;32;
30342;PMS5003;17145;49.902;8.680;2023-07-31T13:13:11;25;25;
30342;PMS5003;17145;49.902;8.680;2023-07-31T13:15:38;29;29;
30342;PMS5003;17145;49.902;8.680;2023-07-31T13:18:06;6;6;
30342;PMS5003;17145;49.902;8.680;2023-07-31T13:20:33;26;25;
30342;PMS5003;17145;49.902;8.680;2023-07-31T13:23:01;15;14;
30342;PMS5003;17145;49.902;8.680;2023-07-31T13:25:28;49;49;
30342;PMS5003;17145;49.902;8.680;2023-07-31T13:27:55;45;45;
30342;PMS5003;17145;49.902;8.680;2023-07-31T13:30:23;34;34;
30342;PMS5003;17145;49.902;8.680;2023-07-31T13:32:50;12;12;
30342;PMS5003;17145;49.902;8.680;2023-07-31T13:35:17;5;5;
30342;PMS5003;17145;49.902;8.680;2023-07-31T13:37:45;6;6;
30342;PMS5003;17145;49.902;8.680;2023-07-31T13:40:12;5;4;
30342;PMS5003;17145;49.902;8.680;2023-07-31T13:42:40;5;5;
30342;PMS5003;17145;49.902;8.680;2023-07-31T13:45:08;4;4;
30342;PMS5003;17145;49.902;8.680;2023-07-31T13:47:35;5;5;
30342;PMS5003;17145;49.902;8.680;2023-07-31T13:50:03;5;5;
30342;PMS5003;17145;49.902;8.680;2023-07-31T13:52:31;4;4;
30342;PMS5003;17145;49.902;8.680;2023-07-31T13:54:59;6;5;
30342;PMS5003;17145;49.902;8.680;2023-07-31T13:57:26;5;5;
30342;PMS5003;17145;49.902;8.680;2023-07-31T13:59:53;6;6;
30342;PMS5003;17145;49.902;8.680;2023-07-31T14:02:21;5;5;
30342;PMS5003;17145;49.902;8.680;2023-07-31T14:04:48;5;5;
30342;PMS5003;17145;49.902;8.680;2023-07-31T14:07:15;4;4;
30342;PMS5003;17145;49.902;8.680;2023-07-31T14:09:43;4;4;
30342;PMS5003;17145;49.902;8.680;2023-07-31T14:12:11;5;5;
30342;PMS5003;17145;49.902;8.680;2023-07-31T14:14:38;3;3;
30342;PMS5003;17145;49.902;8.680;2023-07-31T14:17:05;4;4;
30342;PMS5003;17145;49.902;8.680;2023-07-31T14:19:33;4;4;
30342;PMS5003;17145;49.902;8.680;2023-07-31T14:22:00;4;4;
30342;PMS5003;17145;49.902;8.680;2023-07-31T14:24:27;4;3;
30342;PMS5003;17145;49.902;8.680;2023-07-31T14:26:55;6;6;
30342;PMS5003;17145;49.902;8.680;2023-07-31T14:29:22;3;3;
30342;PMS5003;17145;49.902;8.680;2023-07-31T14:31:49;4;4;
30342;PMS5003;17145;49.902;8.680;2023-07-31T14:34:17;5;4;
30342;PMS5003;17145;49.902;8.680;2023-07-31T14:36:44;4;4;
30342;PMS5003;17145;49.902;8.680;2023-07-31T14:39:12;3;3;
30342;PMS5003;17145;49.902;8.680;2023-07-31T14:41:39;3;3;
30342;PMS5003;17145;49.902;8.680;2023-07-31T14:44:06;3;3;
30342;PMS5003;17145;49.902;8.680;2023-07-31T14:46:34;3;3;
30342;PMS5003;17145;49.902;8.680;2023-07-31T14:49:01;3;3;
30342;PMS5003;17145;49.902;8.680;2023-07-31T14:51:28;13;13;
30342;PMS5003;17145;49.902;8.680;2023-07-31T14:53:56;13;13;
30342;PMS5003;17145;49.902;8.680;2023-07-31T14:56:23;7;7;
30342;PMS5003;17145;49.902;8.680;2023-07-31T14:58:51;8;8;
30342;PMS5003;17145;49.902;8.680;2023-07-31T15:01:18;10;10;
30342;PMS5003;17145;49.902;8.680;2023-07-31T15:03:45;9;9;
30342;PMS5003;17145;49.902;8.680;2023-07-31T15:06:12;8;8;
30342;PMS5003;17145;49.902;8.680;2023-07-31T15:08:40;10;9;
30342;PMS5003;17145;49.902;8.680;2023-07-31T15:11:07;6;6;
30342;PMS5003;17145;49.902;8.680;2023-07-31T15:13:36;7;7;
30342;PMS5003;17145;49.902;8.680;2023-07-31T15:16:03;7;7;
30342;PMS5003;17145;49.902;8.680;2023-07-31T15:18:31;12;11;
30342;PMS5003;17145;49.902;8.680;2023-07-31T15:20:58;16;16;
30342;PMS5003;17145;49.902;8.680;2023-07-31T15:23:26;14;14;
30342;PMS5003;17145;49.902;8.680;2023-07-31T15:25:53;11;11;
30342;PMS5003;17145;49.902;8.680;2023-07-31T15:28:21;8;8;
30342;PMS5003;17145;49.902;8.680;2023-07-31T15:30:48;5;5;
30342;PMS5003;17145;49.902;8.680;2023-07-31T15:33:15;5;5;
30342;PMS5003;17145;49.902;8.680;2023-07-31T15:35:43;4;4;
30342;PMS5003;17145;49.902;8.680;2023-07-31T15:38:10;3;3;
30342;PMS5003;17145;49.902;8.680;2023-07-31T15:40:38;3;3;
30342;PMS5003;17145;49.902;8.680;2023-07-31T15:43:05;4;4;
30342;PMS5003;17145;49.902;8.680;2023-07-31T15:45:33;3;3;
30342;PMS5003;17145;49.902;8.680;2023-07-31T15:48:00;3;3;
30342;PMS5003;17145;49.902;8.680;2023-07-31T15:50:27;3;3;
30342;PMS5003;17145;49.902;8.680;2023-07-31T15:52:55;3;3;
30342;PMS5003;17145;49.902;8.680;2023-07-31T15:55:22;3;3;
30342;PMS5003;17145;49.902;8.680;2023-07-31T15:57:50;6;5;
30342;PMS5003;17145;49.902;8.680;2023-07-31T16:00:17;4;4;
30342;PMS5003;17145;49.902;8.680;2023-07-31T16:02:45;4;4;
30342;PMS5003;17145;49.902;8.680;2023-07-31T16:05:12;4;4;
30342;PMS5003;17145;49.902;8.680;2023-07-31T16:07:40;3;3;
30342;PMS5003;17145;49.902;8.680;2023-07-31T16:10:08;3;3;
30342;PMS5003;17145;49.902;8.680;2023-07-31T16:12:35;5;5;
30342;PMS5003;17145;49.902;8.680;2023-07-31T16:15:03;3;3;
30342;PMS5003;17145;49.902;8.680;2023-07-31T16:17:31;3;3;
30342;PMS5003;17145;49.902;8.680;2023-07-31T16:19:59;4;4;
30342;PMS5003;17145;49.902;8.680;2023-07-31T16:22:27;4;4;
30342;PMS5003;17145;49.902;8.680;2023-07-31T16:24:54;4;4;
30342;PMS5003;17145;49.902;8.680;2023-07-31T16:27:22;5;4;
30342;PMS5003;17145;49.902;8.680;2023-07-31T16:29:49;5;5;
30342;PMS5003;17145;49.902;8.680;2023-07-31T16:32:17;4;4;
30342;PMS5003;17145;49.902;8.680;2023-07-31T16:34:44;4;4;
30342;PMS5003;17145;49.902;8.680;2023-07-31T16:37:12;4;4;
30342;PMS5003;17145;49.902;8.680;2023-07-31T16:39:39;5;5;
30342;PMS5003;17145;49.902;8.680;2023-07-31T16:42:07;4;4;
30342;PMS5003;17145;49.902;8.680;2023-07-31T16:44:34;5;5;
30342;PMS5003;17145;49.902;8.680;2023-07-31T16:47:02;5;5;
30342;PMS5003;17145;49.902;8.680;2023-07-31T16:49:29;3;3;
30342;PMS5003;17145;49.902;8.680;2023-07-31T16:51:57;5;5;
30342;PMS5003;17145;49.902;8.680;2023-07-31T16:54:24;5;4;
30342;PMS5003;17145;49.902;8.680;2023-07-31T16:56:51;5;5;
30342;PMS5003;17145;49.902;8.680;2023-07-31T16:59:19;6;6;